createdAt,value
2022-12-25T07:26:42.473Z,0.60
2022-12-25T07:28:45.388Z,0.50
2022-12-25T07:30:47.914Z,0.60
2022-12-25T07:32:52.363Z,0.70
2022-12-25T07:34:55.857Z,0.80
2022-12-25T07:36:58.431Z,0.80
2022-12-25T07:39:01.087Z,0.90
2022-12-25T07:41:03.780Z,0.90
2022-12-25T07:43:07.353Z,0.90
2022-12-25T07:45:10.353Z,1.00
2022-12-25T07:47:15.373Z,1.10
2022-12-25T07:49:18.158Z,1.00
2022-12-25T07:51:21.692Z,1.10
2022-12-25T07:53:24.604Z,1.20
2022-12-25T07:55:27.220Z,1.30
2022-12-25T07:57:33.011Z,1.30
2022-12-25T07:59:35.562Z,1.40
2022-12-25T08:01:38.310Z,1.40
2022-12-25T08:03:41.278Z,1.50
2022-12-25T08:05:44.067Z,1.60
2022-12-25T08:07:48.259Z,1.60
2022-12-25T08:09:52.643Z,1.60
2022-12-25T08:11:55.403Z,1.60
2022-12-25T08:13:58.523Z,1.70
2022-12-25T08:16:03.398Z,1.80
2022-12-25T08:18:06.193Z,1.80
2022-12-25T08:20:09.805Z,1.80
2022-12-25T08:22:12.385Z,1.80
2022-12-25T08:24:15.031Z,1.90
2022-12-25T08:26:21.292Z,1.80
2022-12-25T08:28:24.735Z,1.90
2022-12-25T08:30:27.654Z,1.80
2022-12-25T08:32:33.898Z,1.70
2022-12-25T08:34:38.859Z,1.70
2022-12-25T08:36:42.463Z,1.70
2022-12-25T08:38:45.348Z,1.60
2022-12-25T08:40:47.974Z,1.70
2022-12-25T08:42:51.213Z,1.80
2022-12-25T08:44:53.712Z,1.90
2022-12-25T08:46:57.445Z,2.10
2022-12-25T08:49:00.257Z,2.10
2022-12-25T08:51:03.922Z,2.00
2022-12-25T08:53:07.386Z,2.00
2022-12-25T08:55:10.443Z,1.90
2022-12-25T08:57:13.773Z,1.90
2022-12-25T08:59:16.343Z,1.90
2022-12-25T09:01:19.138Z,2.00
2022-12-25T09:03:21.681Z,2.00
2022-12-25T09:05:24.393Z,2.00
2022-12-25T09:07:26.932Z,2.00
2022-12-25T09:09:29.908Z,1.90
2022-12-25T09:11:32.942Z,1.80
2022-12-25T09:13:36.262Z,1.70
2022-12-25T09:15:40.549Z,1.60
2022-12-25T09:17:43.589Z,1.50
2022-12-25T09:19:46.246Z,1.70
2022-12-25T09:21:49.223Z,1.90
2022-12-25T09:23:51.822Z,2.00
2022-12-25T09:25:54.933Z,2.10
2022-12-25T09:27:58.843Z,2.10
2022-12-25T09:30:01.372Z,2.20
2022-12-25T09:32:03.994Z,2.30
2022-12-25T09:34:07.117Z,2.40
2022-12-25T09:36:13.415Z,2.60
2022-12-25T09:38:16.722Z,2.50
2022-12-25T09:40:21.889Z,2.30
2022-12-25T09:42:29.864Z,2.20
2022-12-25T09:44:41.304Z,2.30
2022-12-25T09:47:06.461Z,2.30
2022-12-25T09:49:20.582Z,2.40
2022-12-25T09:51:26.233Z,2.40
2022-12-25T09:53:37.679Z,2.40
2022-12-25T09:55:49.324Z,2.50
2022-12-25T09:57:57.989Z,2.60
2022-12-25T10:00:00.926Z,2.50
2022-12-25T10:02:25.706Z,2.70
2022-12-25T10:05:07.741Z,2.70
2022-12-25T10:07:33.074Z,2.60
2022-12-25T10:09:50.853Z,2.60
2022-12-25T10:12:01.995Z,2.40
2022-12-25T10:14:19.751Z,2.40
2022-12-25T10:16:36.033Z,2.10
2022-12-25T10:19:03.462Z,2.20
2022-12-25T10:21:13.182Z,2.20
2022-12-25T10:23:24.787Z,2.20
2022-12-25T10:25:27.579Z,2.20
2022-12-25T10:27:36.372Z,2.30
2022-12-25T10:29:40.174Z,2.30
2022-12-25T10:31:55.913Z,2.40
2022-12-25T11:43:28.201Z,1.90
2022-12-25T11:45:39.522Z,1.90
2022-12-25T11:47:51.463Z,2.00
2022-12-25T11:50:05.128Z,2.00
2022-12-25T11:52:14.931Z,2.10
2022-12-25T11:54:30.675Z,2.20
2022-12-25T11:56:34.186Z,2.20
2022-12-25T11:58:57.922Z,2.30
2022-12-25T12:01:05.241Z,2.10
2022-12-25T12:03:16.582Z,1.90
2022-12-25T12:05:29.971Z,1.90
2022-12-25T12:07:36.009Z,1.80
2022-12-25T12:09:51.631Z,1.90
2022-12-25T12:12:08.181Z,1.80
2022-12-25T12:14:26.400Z,1.80
2022-12-25T12:16:29.670Z,1.70
2022-12-25T12:18:33.942Z,1.60
2022-12-25T12:20:37.854Z,1.60
2022-12-25T12:22:48.923Z,1.60
2022-12-25T12:25:00.439Z,1.60
2022-12-25T12:27:28.050Z,1.60
2022-12-25T12:29:43.854Z,1.60
2022-12-25T12:31:51.847Z,1.70
2022-12-25T12:33:57.721Z,1.70
2022-12-25T12:36:02.855Z,1.90
2022-12-25T12:38:12.451Z,1.90
2022-12-25T12:40:30.281Z,1.90
2022-12-25T12:42:40.785Z,1.90
2022-12-25T12:44:43.955Z,1.90
2022-12-25T12:46:57.637Z,1.90
2022-12-25T12:49:26.189Z,1.90
2022-12-25T12:52:31.930Z,1.90
2022-12-25T12:54:49.129Z,1.80
2022-12-25T12:56:57.925Z,1.80
2022-12-25T12:59:00.723Z,1.70
2022-12-25T13:01:14.050Z,1.70
2022-12-25T13:03:59.568Z,1.80
2022-12-25T13:06:18.856Z,1.90
2022-12-25T13:08:32.035Z,1.80
2022-12-25T13:10:37.986Z,1.70
2022-12-25T13:12:40.535Z,1.80
2022-12-25T13:14:47.981Z,1.90
2022-12-25T13:16:54.345Z,1.90
2022-12-25T13:18:57.181Z,1.90
2022-12-25T13:21:04.619Z,1.90
2022-12-25T13:23:28.349Z,1.80
2022-12-25T13:25:30.748Z,1.90
2022-12-25T13:27:34.440Z,1.80
2022-12-25T13:29:41.838Z,1.80
2022-12-25T13:31:44.418Z,1.80
2022-12-25T13:34:13.663Z,1.70
2022-12-25T13:36:16.086Z,1.70
2022-12-25T13:38:19.047Z,1.70
2022-12-25T13:40:27.767Z,1.70
2022-12-25T13:42:36.705Z,1.90
2022-12-25T13:44:52.856Z,2.00
2022-12-25T13:46:55.199Z,2.10
2022-12-25T13:49:02.079Z,2.10
2022-12-25T13:51:04.495Z,2.10
2022-12-25T13:53:18.524Z,2.20
2022-12-25T13:55:23.779Z,2.10
2022-12-25T13:57:32.379Z,1.90
2022-12-25T13:59:34.863Z,1.80
2022-12-25T14:01:43.203Z,1.90
2022-12-25T14:03:47.913Z,1.80
2022-12-25T14:06:02.258Z,1.80
2022-12-25T14:08:16.359Z,1.70
2022-12-25T14:10:18.826Z,1.80
2022-12-25T14:12:22.295Z,1.60
2022-12-25T14:14:26.876Z,1.60
2022-12-25T14:16:29.783Z,1.60
2022-12-25T14:18:33.104Z,1.70
2022-12-25T14:20:42.083Z,1.60
2022-12-25T14:22:53.596Z,1.60
2022-12-25T14:24:56.021Z,1.60
2022-12-25T14:27:01.714Z,1.70
2022-12-25T14:29:16.495Z,1.70
2022-12-25T14:31:20.263Z,1.70
2022-12-25T14:33:24.626Z,1.80
2022-12-25T14:35:27.128Z,1.70
2022-12-25T14:37:32.201Z,1.70
2022-12-25T14:39:39.179Z,1.70
2022-12-25T14:41:42.446Z,1.70
2022-12-25T14:43:55.804Z,1.70
2022-12-25T14:46:01.026Z,1.80
2022-12-25T14:48:25.311Z,1.80
2022-12-25T14:50:33.535Z,1.60
2022-12-25T14:52:45.916Z,1.70
2022-12-25T14:54:56.429Z,1.60
2022-12-25T14:56:58.778Z,1.60
2022-12-25T14:59:19.089Z,1.60
2022-12-25T15:01:28.181Z,1.60
2022-12-25T15:03:36.402Z,1.70
2022-12-25T15:05:40.286Z,1.70
2022-12-25T15:07:43.298Z,1.70
2022-12-25T15:09:45.812Z,1.70
2022-12-25T15:11:50.972Z,1.70
2022-12-25T15:13:53.638Z,1.70
2022-12-25T15:16:02.536Z,1.70
2022-12-25T15:18:06.363Z,1.70
2022-12-25T15:20:15.531Z,1.70
2022-12-25T15:22:18.117Z,1.60
2022-12-25T15:24:22.030Z,1.70
2022-12-25T15:26:25.846Z,1.70
2022-12-25T15:28:28.810Z,1.70
2022-12-25T15:30:34.043Z,1.60
2022-12-25T15:32:36.486Z,1.70
2022-12-25T15:34:38.813Z,1.60
2022-12-25T15:36:41.324Z,1.60
2022-12-25T15:38:43.946Z,1.70
2022-12-25T15:40:48.285Z,1.80
2022-12-25T15:42:52.056Z,1.80
2022-12-25T15:44:55.175Z,1.80
2022-12-25T15:46:59.736Z,1.80
2022-12-25T15:49:03.805Z,1.70
2022-12-25T15:51:06.596Z,1.70
2022-12-25T15:53:14.261Z,1.70
2022-12-25T15:55:17.529Z,1.70
2022-12-25T15:57:23.210Z,1.80
2022-12-25T15:59:26.104Z,1.80
2022-12-25T17:07:13.770Z,1.90
2022-12-25T17:09:18.225Z,1.90
2022-12-25T17:11:26.610Z,1.90
2022-12-25T17:13:31.605Z,2.00
2022-12-25T17:15:36.126Z,2.10
2022-12-25T17:17:40.556Z,2.10
2022-12-25T17:19:44.974Z,2.20
2022-12-25T17:21:49.926Z,2.20
2022-12-25T17:24:01.481Z,2.30
2022-12-25T17:26:07.254Z,2.40
2022-12-25T17:28:12.284Z,2.40
2022-12-25T17:30:16.166Z,2.40
2022-12-25T17:32:20.326Z,2.30
2022-12-25T17:34:24.324Z,2.40
2022-12-25T17:36:29.653Z,2.40
2022-12-25T17:38:35.034Z,2.40
2022-12-25T17:40:39.592Z,2.40
2022-12-25T17:42:44.627Z,2.40
2022-12-25T17:44:48.931Z,2.40
2022-12-25T17:46:53.620Z,2.40
2022-12-25T17:49:00.856Z,2.40
2022-12-25T17:51:06.523Z,2.50
2022-12-25T17:53:10.291Z,2.40
2022-12-25T17:55:15.266Z,2.30
2022-12-25T17:57:19.658Z,2.20
2022-12-25T17:59:30.564Z,2.20
2022-12-25T18:01:35.803Z,2.10
2022-12-25T18:03:40.007Z,2.10
2022-12-25T18:05:44.872Z,2.20
2022-12-25T18:07:49.276Z,2.20
2022-12-25T18:09:54.443Z,2.30
2022-12-25T18:11:58.971Z,2.30
2022-12-25T18:14:07.800Z,2.20
2022-12-25T18:16:13.045Z,2.30
2022-12-25T18:18:17.174Z,2.30
2022-12-25T18:20:21.064Z,2.20
2022-12-25T18:22:25.175Z,2.20
2022-12-25T18:24:27.792Z,2.10
2022-12-25T18:26:30.534Z,2.10
2022-12-25T18:28:34.428Z,2.10
2022-12-25T18:30:45.417Z,2.00
2022-12-25T18:32:49.343Z,1.90
2022-12-25T18:34:56.332Z,2.00
2022-12-25T18:37:03.796Z,2.10
2022-12-25T18:39:06.621Z,2.20
2022-12-25T18:41:10.983Z,2.30
2022-12-25T18:43:14.589Z,2.20
2022-12-25T18:45:19.247Z,2.30
2022-12-25T18:47:22.095Z,2.40
2022-12-25T18:49:26.265Z,2.30
2022-12-25T18:51:36.425Z,2.30
2022-12-25T18:53:39.895Z,2.30
2022-12-25T18:55:42.524Z,2.30
2022-12-25T18:57:45.238Z,2.30
2022-12-25T18:59:47.658Z,2.30
2022-12-25T19:01:50.780Z,2.30
2022-12-25T19:04:00.235Z,2.30
2022-12-25T19:06:07.313Z,2.40
2022-12-25T19:08:10.055Z,2.40
2022-12-25T19:10:13.124Z,2.40
2022-12-25T19:12:16.287Z,2.40
2022-12-25T19:14:18.974Z,2.30
2022-12-25T19:16:21.608Z,2.30
2022-12-25T19:18:24.235Z,2.30
2022-12-25T19:20:28.347Z,2.30
2022-12-25T19:22:31.661Z,2.40
2022-12-25T19:24:35.835Z,2.40
2022-12-25T19:26:38.365Z,2.40
2022-12-25T19:28:41.642Z,2.40
2022-12-25T19:30:44.395Z,2.30
2022-12-25T19:32:47.874Z,2.30
2022-12-25T19:34:50.607Z,2.30
2022-12-25T19:36:53.491Z,2.30
2022-12-25T19:38:58.174Z,2.30
2022-12-25T19:41:05.357Z,2.40
2022-12-25T19:43:09.844Z,2.30
2022-12-25T19:45:12.849Z,2.30
2022-12-25T19:47:15.553Z,2.30
2022-12-25T19:49:18.389Z,2.30
2022-12-25T19:51:29.679Z,2.40
2022-12-25T19:53:32.791Z,2.40
2022-12-25T19:55:35.424Z,2.50
2022-12-25T19:57:38.238Z,2.40
2022-12-25T19:59:42.175Z,2.40
2022-12-25T20:01:45.902Z,2.30
2022-12-25T20:03:49.564Z,2.40
2022-12-25T20:05:52.731Z,2.30
2022-12-25T20:07:56.092Z,2.30
2022-12-25T20:12:07.526Z,2.40
2022-12-25T20:14:12.676Z,2.40
2022-12-25T20:16:16.191Z,2.50
2022-12-25T20:18:19.077Z,2.50
2022-12-25T20:20:21.669Z,2.50
2022-12-25T20:22:24.544Z,2.60
2022-12-25T20:24:27.425Z,2.60
2022-12-25T20:26:32.897Z,2.60
2022-12-25T20:28:37.151Z,2.50
2022-12-25T20:30:42.830Z,2.50
2022-12-25T20:32:50.384Z,2.40
2022-12-25T20:34:54.500Z,2.30
2022-12-25T20:36:57.682Z,2.50
2022-12-25T20:39:00.525Z,2.50
2022-12-25T20:41:30.472Z,2.40
2022-12-25T20:43:35.931Z,2.40
2022-12-25T20:45:43.754Z,2.50
2022-12-25T20:47:47.011Z,2.50
2022-12-25T20:49:50.638Z,2.50
2022-12-25T20:51:53.311Z,2.50
2022-12-25T20:53:56.840Z,2.50
2022-12-25T20:55:59.620Z,2.50
2022-12-25T20:58:02.604Z,2.50
2022-12-25T21:00:05.991Z,2.60
2022-12-25T21:02:33.935Z,2.50
2022-12-25T21:04:35.420Z,2.60
2022-12-25T21:06:37.978Z,2.70
2022-12-25T21:08:44.175Z,2.70
2022-12-25T21:10:50.982Z,2.70
2022-12-25T21:12:53.510Z,2.70
2022-12-25T21:14:56.180Z,2.70
2022-12-25T21:16:58.851Z,2.60
2022-12-25T21:19:02.120Z,2.50
2022-12-25T21:21:07.868Z,2.50
2022-12-25T21:23:10.820Z,2.50
2022-12-25T21:25:13.413Z,2.60
2022-12-25T21:27:16.203Z,2.70
2022-12-25T21:29:21.881Z,2.60
2022-12-25T21:31:25.786Z,2.60
2022-12-25T21:33:46.600Z,2.60
2022-12-25T21:35:50.770Z,2.70
2022-12-25T21:37:54.551Z,2.70
2022-12-25T21:39:57.599Z,2.60
2022-12-25T21:42:00.752Z,2.50
2022-12-25T21:44:04.120Z,2.60
2022-12-25T21:46:09.138Z,2.70
2022-12-25T21:48:14.271Z,2.70
2022-12-25T21:50:39.190Z,2.80
2022-12-25T21:52:42.296Z,2.90
2022-12-25T21:54:44.864Z,2.90
2022-12-25T21:56:48.320Z,3.00
2022-12-25T21:58:51.578Z,2.90
2022-12-25T22:00:54.426Z,3.00
2022-12-25T22:02:57.588Z,3.00
2022-12-25T22:05:00.680Z,3.10
2022-12-25T22:07:18.806Z,3.10
2022-12-25T22:09:22.533Z,3.20
2022-12-25T22:11:44.765Z,3.10
2022-12-25T22:14:06.252Z,3.10
2022-12-25T22:16:27.358Z,3.00
2022-12-25T22:18:48.471Z,3.00
2022-12-25T22:20:50.971Z,3.00
2022-12-25T22:22:54.356Z,3.00
2022-12-25T22:25:00.277Z,3.00
2022-12-25T22:27:02.946Z,3.00
2022-12-25T22:29:05.412Z,3.00
2022-12-25T22:31:08.043Z,3.00
2022-12-25T22:33:10.903Z,3.00
2022-12-25T22:35:14.587Z,3.00
2022-12-25T22:37:19.283Z,3.00
2022-12-25T22:39:21.701Z,3.00
2022-12-25T22:41:28.304Z,3.00
2022-12-25T22:44:14.444Z,2.90
2022-12-25T22:45:58.936Z,2.90
2022-12-25T22:48:01.411Z,2.90
2022-12-25T22:50:05.326Z,2.90
2022-12-25T22:52:10.794Z,2.90
2022-12-25T22:54:14.461Z,3.00
2022-12-25T22:56:17.511Z,3.00
2022-12-25T22:58:20.195Z,3.00
2022-12-25T23:00:23.001Z,3.00
2022-12-25T23:02:26.078Z,2.90
2022-12-25T23:04:29.730Z,2.90
2022-12-25T23:06:32.470Z,3.00
2022-12-25T23:08:35.340Z,3.10
2022-12-25T23:10:38.211Z,3.10
2022-12-25T23:12:59.174Z,3.10
2022-12-25T23:15:01.875Z,3.10
2022-12-25T23:17:04.610Z,3.20
2022-12-25T23:19:26.361Z,3.10
2022-12-25T23:21:48.089Z,3.10
2022-12-25T23:24:09.132Z,3.10
2022-12-25T23:26:13.703Z,3.10
2022-12-25T23:28:36.290Z,3.00
2022-12-25T23:30:38.862Z,3.10
2022-12-25T23:32:42.512Z,3.20
2022-12-25T23:34:46.270Z,3.30
2022-12-25T23:36:48.994Z,3.30
2022-12-25T23:38:51.571Z,3.30
2022-12-25T23:40:54.270Z,3.40
2022-12-25T23:42:56.830Z,3.40
2022-12-25T23:44:59.408Z,3.40
2022-12-25T23:47:02.275Z,3.50
2022-12-25T23:49:05.591Z,3.40
2022-12-25T23:51:09.215Z,3.40
2022-12-25T23:53:11.958Z,3.40
2022-12-25T23:55:14.519Z,3.30
2022-12-25T23:57:17.420Z,3.20
2022-12-25T23:59:20.807Z,3.20
